Urb Las Campinas Ii, Puerto Rico
Current Conditions -  °F | °C
As of 8:35 AM on Sunday 25 Jan 2015 (Local Time) from TJNR Reporting Station
Broken Clouds Broken Clouds  
Wind Chill: 80°   Ceiling: 2200
Heat Index: 84°   Visibility: 10mi
Dew Point: 72°   Wind: 9mph
Humidity: 76%   Direction: 120°ESE
Pressure: 30.07"   Gusts: NA
Location:  18.1853°N, 65.8667°W
Report Text: TJNR 251235Z AUTO 12008KT 10SM BKN022 27/22 A3007 RMK AO2 T02670222 $
Loading
Personal Weather Stations






























Interactive Weather Map New forecast layout! Learn more

10-Day Weather Forecast

Advertisements
Track Severe Weather on mobile